PDT,Max TemperatureF,Mean TemperatureF,Min TemperatureF,Max Dew PointF,MeanDew PointF,Min DewpointF,Max Humidity, Mean Humidity, Min Humidity, Max Sea Level PressureIn, Mean Sea Level PressureIn, Min Sea Level PressureIn, Max VisibilityMiles, Mean VisibilityMiles, Min VisibilityMiles, Max Wind SpeedMPH, Mean Wind SpeedMPH, Max Gust SpeedMPH,PrecipitationIn, CloudCover, Events, WindDirDegrees
2014-4-1,66,59,52,53,45,37,89,62,34,30.01,29.97,29.94,10,10,4,14,6,24,0.11,4,Rain,244
2014-4-2,65,57,49,48,44,38,93,65,37,30.07,30.00,29.94,10,10,10,14,5,24,0.10,2,Rain,270
2014-4-3,70,59,47,48,44,41,86,62,37,30.14,30.08,30.03,10,10,10,13,5,18,0.00,0,,100
2014-4-4,67,60,52,50,46,38,83,60,37,30.04,29.99,29.94,10,10,10,13,4,17,0.00,1,,184
2014-4-5,70,61,52,51,46,39,83,58,33,30.04,29.97,29.93,10,10,10,15,6,19,0.00,3,,136
2014-4-6,86,68,50,49,41,32,77,46,15,30.09,30.04,29.99,10,10,10,13,3,18,0.00,0,,286
2014-4-7,90,72,53,46,41,35,66,41,16,30.09,30.05,30.02,10,10,9,13,4,16,0.00,0,,265
2014-4-8,95,75,55,48,40,29,62,36,10,30.09,30.04,29.97,10,10,10,12,2,17,0.00,0,,248
2014-4-9,92,74,56,50,42,33,67,41,15,30.03,29.98,29.92,10,10,10,13,2,16,0.00,0,,263
2014-4-10,80,66,52,52,47,38,77,51,24,29.98,29.94,29.89,10,9,6,9,2,11,0.00,0,,207
2014-4-11,81,69,57,53,49,39,80,52,23,29.94,29.89,29.83,10,9,7,12,3,15,0.00,1,,235
2014-4-12,69,64,58,53,49,47,80,64,47,29.97,29.92,29.87,10,10,8,14,5,20,0.00,6,,183
2014-4-13,70,64,57,51,48,46,72,60,48,30.03,29.98,29.94,10,10,10,14,5,18,0.00,5,,208
2014-4-14,87,70,53,52,47,38,83,53,22,30.04,30.00,29.96,10,9,6,10,3,14,0.00,0,,296
2014-4-15,78,68,58,55,53,49,87,63,39,30.00,29.92,29.81,10,7,3,10,4,14,0.00,3,,190
2014-4-16,74,66,57,54,52,51,80,65,49,29.88,29.84,29.78,10,10,6,12,4,16,0.00,4,,190
2014-4-17,71,66,60,54,53,52,78,68,57,29.92,29.87,29.84,10,9,7,14,5,20,0.00,6,,176
2014-4-18,72,67,62,53,52,51,72,61,49,29.94,29.89,29.86,10,10,10,13,5,18,0.00,4,,170
2014-4-19,78,67,56,55,54,52,87,65,43,30.05,29.98,29.93,10,9,7,12,4,16,0.00,0,,220
2014-4-20,78,68,58,57,55,53,87,66,45,30.06,30.03,29.98,10,9,7,12,3,15,0.00,0,,178
2014-4-21,81,70,59,57,56,53,90,65,39,30.05,30.00,29.92,10,7,4,12,4,16,0.00,3,,197
2014-4-22,73,67,61,55,51,47,78,60,41,29.97,29.93,29.88,10,10,9,13,5,19,0.00,4,,199
2014-4-23,75,66,56,51,48,36,80,58,35,29.96,29.93,29.88,10,10,10,12,5,17,0.00,1,,145
2014-4-24,79,67,54,52,47,41,77,55,32,29.99,29.93,29.89,10,10,10,13,4,17,0.00,0,,166
2014-4-25,71,65,58,55,52,50,80,67,53,29.93,29.87,29.79,10,9,2,15,6,20,0.00,5,Rain,176
2014-4-26,71,62,53,53,45,36,86,59,32,29.98,29.86,29.77,10,9,3,14,7,23,T,2,Rain,256
2014-4-27,71,63,55,49,47,39,77,59,40,30.01,29.98,29.95,10,10,10,14,7,20,0.00,2,,156
2014-4-28,83,70,56,53,49,41,80,52,24,30.01,29.96,29.87,10,10,10,10,4,15,0.00,2,,101
2014-4-29,96,77,57,53,30,16,80,43,5,30.03,29.98,29.93,10,10,9,29,10,37,0.00,0,,45
2014-4-30,96,80,64,36,21,10,34,20,5,30.01,29.97,29.90,10,8,2,25,12,33,0.00,3,,83